sensor_id;sensor_type;location;lat;lon;timestamp;pressure;altitude;pressure_sealevel;temperature;humidity
63654;BME280;49809;47.418;19.080;2023-03-23T00:06:29;100397.09;;;4.57;100.00
63654;BME280;49809;47.418;19.080;2023-03-23T00:09:35;100393.50;;;4.52;100.00
63654;BME280;49809;47.418;19.080;2023-03-23T00:13:02;100386.69;;;4.44;100.00
63654;BME280;49809;47.418;19.080;2023-03-23T00:16:15;100390.31;;;4.43;100.00
63654;BME280;49809;47.418;19.080;2023-03-23T00:19:31;100393.19;;;4.35;100.00
63654;BME280;49809;47.418;19.080;2023-03-23T00:22:37;100389.53;;;4.36;100.00
63654;BME280;49809;47.418;19.080;2023-03-23T00:25:40;100392.94;;;4.36;100.00
63654;BME280;49809;47.418;19.080;2023-03-23T00:28:43;100384.09;;;4.31;100.00
63654;BME280;49809;47.418;19.080;2023-03-23T00:32:08;100387.56;;;4.25;100.00
63654;BME280;49809;47.418;19.080;2023-03-23T00:35:41;100383.75;;;4.21;100.00
63654;BME280;49809;47.418;19.080;2023-03-23T00:38:45;100382.72;;;4.22;100.00
63654;BME280;49809;47.418;19.080;2023-03-23T00:42:15;100383.53;;;4.22;100.00
63654;BME280;49809;47.418;19.080;2023-03-23T00:45:18;100383.59;;;4.16;100.00
63654;BME280;49809;47.418;19.080;2023-03-23T00:48:24;100378.56;;;4.08;100.00
63654;BME280;49809;47.418;19.080;2023-03-23T00:51:30;100375.13;;;4.07;100.00
63654;BME280;49809;47.418;19.080;2023-03-23T00:54:33;100371.31;;;4.10;100.00
63654;BME280;49809;47.418;19.080;2023-03-23T00:57:36;100368.69;;;4.03;100.00
63654;BME280;49809;47.418;19.080;2023-03-23T01:00:59;100367.88;;;4.03;100.00
63654;BME280;49809;47.418;19.080;2023-03-23T05:49:15;100412.78;;;4.13;100.00
63654;BME280;49809;47.418;19.080;2023-03-23T05:52:33;100401.84;;;4.35;100.00
63654;BME280;49809;47.418;19.080;2023-03-23T05:56:06;100392.69;;;4.51;100.00
63654;BME280;49809;47.418;19.080;2023-03-23T05:59:55;100380.09;;;4.66;100.00
63654;BME280;49809;47.418;19.080;2023-03-23T06:03:46;100394.50;;;4.89;100.00
63654;BME280;49809;47.418;19.080;2023-03-23T06:07:28;100396.13;;;5.14;100.00
63654;BME280;49809;47.418;19.080;2023-03-23T06:11:04;100396.16;;;5.39;100.00
63654;BME280;49809;47.418;19.080;2023-03-23T06:14:31;100394.97;;;5.78;99.66
63654;BME280;49809;47.418;19.080;2023-03-23T06:18:16;100398.03;;;6.00;97.79
63654;BME280;49809;47.418;19.080;2023-03-23T06:35:32;100391.47;;;7.52;88.11
63654;BME280;49809;47.418;19.080;2023-03-23T06:39:24;100392.00;;;8.12;85.12
63654;BME280;49809;47.418;19.080;2023-03-23T06:43:10;100393.19;;;8.72;83.04
63654;BME280;49809;47.418;19.080;2023-03-23T06:46:37;100399.81;;;9.03;78.85
63654;BME280;49809;47.418;19.080;2023-03-23T06:50:33;100402.53;;;9.25;77.01
63654;BME280;49809;47.418;19.080;2023-03-23T06:54:59;100400.03;;;9.85;76.19
63654;BME280;49809;47.418;19.080;2023-03-23T06:59:02;100402.03;;;10.17;75.21
63654;BME280;49809;47.418;19.080;2023-03-23T07:02:26;100391.06;;;10.52;73.84
63654;BME280;49809;47.418;19.080;2023-03-23T07:06:03;100397.19;;;10.52;72.27
63654;BME280;49809;47.418;19.080;2023-03-23T07:09:37;100404.47;;;10.40;72.50
63654;BME280;49809;47.418;19.080;2023-03-23T07:13:14;100389.56;;;10.82;71.37
63654;BME280;49809;47.418;19.080;2023-03-23T07:16:41;100400.69;;;10.84;71.66
63654;BME280;49809;47.418;19.080;2023-03-23T07:20:16;100412.53;;;11.36;70.31
63654;BME280;49809;47.418;19.080;2023-03-23T07:23:46;100405.84;;;11.28;69.76
63654;BME280;49809;47.418;19.080;2023-03-23T07:27:17;100405.44;;;11.41;69.37
63654;BME280;49809;47.418;19.080;2023-03-23T07:31:06;100405.44;;;12.30;67.71
63654;BME280;49809;47.418;19.080;2023-03-23T07:34:50;100418.75;;;11.88;68.17
63654;BME280;49809;47.418;19.080;2023-03-23T07:38:28;100412.91;;;11.86;67.97
63654;BME280;49809;47.418;19.080;2023-03-23T07:42:23;100413.13;;;12.32;67.20
63654;BME280;49809;47.418;19.080;2023-03-23T07:45:54;100418.34;;;12.94;65.32
63654;BME280;49809;47.418;19.080;2023-03-23T07:55:20;100430.09;;;13.84;62.88
63654;BME280;49809;47.418;19.080;2023-03-23T07:59:12;100429.94;;;14.29;60.17
63654;BME280;49809;47.418;19.080;2023-03-23T08:02:53;100431.47;;;13.26;62.65
63654;BME280;49809;47.418;19.080;2023-03-23T08:06:45;100428.81;;;13.31;64.03
63654;BME280;49809;47.418;19.080;2023-03-23T08:10:14;100427.41;;;13.94;61.85
63654;BME280;49809;47.418;19.080;2023-03-23T08:13:48;100430.53;;;14.11;61.55
63654;BME280;49809;47.418;19.080;2023-03-23T08:25:09;100425.38;;;15.67;56.54
63654;BME280;49809;47.418;19.080;2023-03-23T08:28:47;100423.69;;;16.00;55.25
63654;BME280;49809;47.418;19.080;2023-03-23T08:32:27;100425.22;;;15.82;55.39
63654;BME280;49809;47.418;19.080;2023-03-23T08:36:02;100428.41;;;16.08;54.10
63654;BME280;49809;47.418;19.080;2023-03-23T08:43:11;100429.25;;;16.03;53.37
63654;BME280;49809;47.418;19.080;2023-03-23T08:47:10;100431.56;;;17.14;51.84
63654;BME280;49809;47.418;19.080;2023-03-23T09:02:10;100429.53;;;19.16;46.51
63654;BME280;49809;47.418;19.080;2023-03-23T09:13:27;100406.53;;;20.16;41.53
63654;BME280;49809;47.418;19.080;2023-03-23T09:17:00;100411.62;;;20.17;41.70
63654;BME280;49809;47.418;19.080;2023-03-23T09:20:27;100408.94;;;20.17;41.33
63654;BME280;49809;47.418;19.080;2023-03-23T09:23:40;100402.63;;;20.22;42.28
63654;BME280;49809;47.418;19.080;2023-03-23T09:27:12;100406.91;;;19.08;43.78
63654;BME280;49809;47.418;19.080;2023-03-23T09:34:33;100398.59;;;21.10;40.71
63654;BME280;49809;47.418;19.080;2023-03-23T09:43:40;100394.69;;;17.43;49.27
63654;BME280;49809;47.418;19.080;2023-03-23T09:51:44;100391.59;;;18.37;45.79
63654;BME280;49809;47.418;19.080;2023-03-23T09:55:10;100379.59;;;19.90;41.66
63654;BME280;49809;47.418;19.080;2023-03-23T09:58:58;100365.94;;;20.17;41.06
63654;BME280;49809;47.418;19.080;2023-03-23T10:06:17;100363.75;;;21.22;38.46
63654;BME280;49809;47.418;19.080;2023-03-23T10:09:49;100363.78;;;20.88;38.43
63654;BME280;49809;47.418;19.080;2023-03-23T10:14:12;100356.81;;;20.53;39.94
63654;BME280;49809;47.418;19.080;2023-03-23T10:22:37;100354.31;;;21.54;37.20
63654;BME280;49809;47.418;19.080;2023-03-23T10:31:13;100345.25;;;21.04;36.60
63654;BME280;49809;47.418;19.080;2023-03-23T10:35:25;100331.66;;;21.93;34.68
63654;BME280;49809;47.418;19.080;2023-03-23T10:39:23;100327.22;;;21.97;35.35
63654;BME280;49809;47.418;19.080;2023-03-23T10:42:54;100321.44;;;21.69;36.14
63654;BME280;49809;47.418;19.080;2023-03-23T10:46:46;100319.41;;;22.25;34.60
63654;BME280;49809;47.418;19.080;2023-03-23T10:50:35;100315.69;;;21.80;35.45
63654;BME280;49809;47.418;19.080;2023-03-23T10:54:09;100309.13;;;21.98;34.54
63654;BME280;49809;47.418;19.080;2023-03-23T10:57:42;100302.91;;;21.30;36.27
63654;BME280;49809;47.418;19.080;2023-03-23T11:01:11;100305.03;;;21.24;36.44
63654;BME280;49809;47.418;19.080;2023-03-23T11:05:16;100301.41;;;20.95;36.02
63654;BME280;49809;47.418;19.080;2023-03-23T11:08:58;100307.00;;;20.47;36.57
63654;BME280;49809;47.418;19.080;2023-03-23T11:12:44;100313.94;;;20.82;36.86
63654;BME280;49809;47.418;19.080;2023-03-23T11:16:32;100314.38;;;21.10;35.53
63654;BME280;49809;47.418;19.080;2023-03-23T11:20:18;100301.78;;;20.76;37.03
63654;BME280;49809;47.418;19.080;2023-03-23T11:24:18;100298.97;;;21.28;35.28
63654;BME280;49809;47.418;19.080;2023-03-23T11:28:03;100296.50;;;21.81;34.40
63654;BME280;49809;47.418;19.080;2023-03-23T11:32:12;100295.16;;;22.25;33.81
63654;BME280;49809;47.418;19.080;2023-03-23T11:43:51;100279.38;;;21.18;34.63
63654;BME280;49809;47.418;19.080;2023-03-23T11:52:02;100275.88;;;21.85;33.51
63654;BME280;49809;47.418;19.080;2023-03-23T12:04:13;100273.44;;;20.27;36.37
63654;BME280;49809;47.418;19.080;2023-03-23T12:12:03;100262.22;;;20.33;36.39
63654;BME280;49809;47.418;19.080;2023-03-23T12:28:07;100239.38;;;21.96;33.94
63654;BME280;49809;47.418;19.080;2023-03-23T12:48:05;100221.19;;;21.85;33.31
63654;BME280;49809;47.418;19.080;2023-03-23T13:04:18;100208.19;;;22.07;33.13
63654;BME280;49809;47.418;19.080;2023-03-23T13:25:00;100188.81;;;22.47;32.54
63654;BME280;49809;47.418;19.080;2023-03-23T14:04:55;100171.00;;;22.22;33.07
63654;BME280;49809;47.418;19.080;2023-03-23T14:18:19;100169.75;;;21.98;33.66
63654;BME280;49809;47.418;19.080;2023-03-23T14:43:29;100154.41;;;20.90;35.91
63654;BME280;49809;47.418;19.080;2023-03-23T14:47:35;100158.84;;;20.86;36.01
63654;BME280;49809;47.418;19.080;2023-03-23T14:55:43;100154.34;;;20.61;36.70
63654;BME280;49809;47.418;19.080;2023-03-23T15:16:29;100150.53;;;21.38;35.86
63654;BME280;49809;47.418;19.080;2023-03-23T15:20:47;100145.19;;;21.58;35.08
63654;BME280;49809;47.418;19.080;2023-03-23T15:24:36;100143.00;;;21.52;35.64
63654;BME280;49809;47.418;19.080;2023-03-23T15:28:44;100142.91;;;21.10;36.69
63654;BME280;49809;47.418;19.080;2023-03-23T15:32:11;100147.69;;;20.96;36.21
63654;BME280;49809;47.418;19.080;2023-03-23T15:39:29;100137.66;;;20.38;37.07
63654;BME280;49809;47.418;19.080;2023-03-23T15:42:38;100145.50;;;20.43;37.43
63654;BME280;49809;47.418;19.080;2023-03-23T15:46:20;100148.69;;;20.45;37.95
63654;BME280;49809;47.418;19.080;2023-03-23T15:49:59;100144.44;;;20.27;38.29
63654;BME280;49809;47.418;19.080;2023-03-23T15:53:55;100148.69;;;20.45;38.03
63654;BME280;49809;47.418;19.080;2023-03-23T15:57:29;100146.63;;;20.51;38.00
63654;BME280;49809;47.418;19.080;2023-03-23T16:01:04;100146.31;;;20.52;37.96
63654;BME280;49809;47.418;19.080;2023-03-23T16:04:36;100144.28;;;20.23;38.88
63654;BME280;49809;47.418;19.080;2023-03-23T16:08:09;100149.22;;;20.04;39.23
63654;BME280;49809;47.418;19.080;2023-03-23T16:11:46;100153.16;;;19.89;39.69
63654;BME280;49809;47.418;19.080;2023-03-23T16:15:30;100147.84;;;19.41;40.75
63654;BME280;49809;47.418;19.080;2023-03-23T16:19:05;100151.88;;;19.13;41.43
63654;BME280;49809;47.418;19.080;2023-03-23T16:22:45;100151.28;;;18.77;42.33
63654;BME280;49809;47.418;19.080;2023-03-23T16:26:26;100152.03;;;18.46;43.58
63654;BME280;49809;47.418;19.080;2023-03-23T16:30:31;100155.78;;;18.37;43.76
63654;BME280;49809;47.418;19.080;2023-03-23T16:34:08;100143.53;;;18.22;44.28
63654;BME280;49809;47.418;19.080;2023-03-23T16:37:29;100140.88;;;18.00;45.02
63654;BME280;49809;47.418;19.080;2023-03-23T16:41:06;100146.00;;;17.74;45.73
63654;BME280;49809;47.418;19.080;2023-03-23T16:44:24;100150.50;;;17.51;46.67
63654;BME280;49809;47.418;19.080;2023-03-23T16:47:54;100155.09;;;17.37;47.19
63654;BME280;49809;47.418;19.080;2023-03-23T16:51:26;100166.19;;;17.03;48.24
63654;BME280;49809;47.418;19.080;2023-03-23T16:55:08;100171.59;;;16.71;49.66
63654;BME280;49809;47.418;19.080;2023-03-23T16:58:44;100175.75;;;16.44;50.86
63654;BME280;49809;47.418;19.080;2023-03-23T17:02:18;100169.16;;;16.23;52.03
63654;BME280;49809;47.418;19.080;2023-03-23T17:05:53;100164.00;;;16.27;51.13
63654;BME280;49809;47.418;19.080;2023-03-23T17:09:33;100169.69;;;16.06;51.93
63654;BME280;49809;47.418;19.080;2023-03-23T17:13:03;100176.25;;;15.77;53.09
63654;BME280;49809;47.418;19.080;2023-03-23T17:16:43;100176.25;;;15.58;53.52
63654;BME280;49809;47.418;19.080;2023-03-23T17:20:17;100177.03;;;15.35;54.76
63654;BME280;49809;47.418;19.080;2023-03-23T17:23:22;100176.56;;;15.09;55.39
63654;BME280;49809;47.418;19.080;2023-03-23T17:26:26;100181.19;;;14.98;56.27
63654;BME280;49809;47.418;19.080;2023-03-23T17:29:29;100184.22;;;14.87;56.29
63654;BME280;49809;47.418;19.080;2023-03-23T17:32:35;100177.19;;;14.72;57.20
63654;BME280;49809;47.418;19.080;2023-03-23T17:35:40;100179.75;;;14.53;57.96
63654;BME280;49809;47.418;19.080;2023-03-23T17:38:50;100188.66;;;14.33;58.23
63654;BME280;49809;47.418;19.080;2023-03-23T17:42:19;100193.06;;;14.14;58.95
63654;BME280;49809;47.418;19.080;2023-03-23T17:45:23;100193.94;;;14.05;59.44
63654;BME280;49809;47.418;19.080;2023-03-23T17:48:26;100204.97;;;13.88;60.63
63654;BME280;49809;47.418;19.080;2023-03-23T17:51:29;100202.38;;;13.73;61.40
63654;BME280;49809;47.418;19.080;2023-03-23T17:54:35;100204.31;;;13.57;62.63
63654;BME280;49809;47.418;19.080;2023-03-23T17:57:38;100207.81;;;13.42;62.69
63654;BME280;49809;47.418;19.080;2023-03-23T18:00:42;100217.44;;;13.28;63.43
63654;BME280;49809;47.418;19.080;2023-03-23T18:03:48;100222.00;;;13.13;64.83
63654;BME280;49809;47.418;19.080;2023-03-23T18:06:55;100228.13;;;12.98;65.99
63654;BME280;49809;47.418;19.080;2023-03-23T18:10:36;100226.56;;;12.87;66.01
63654;BME280;49809;47.418;19.080;2023-03-23T18:13:42;100229.47;;;12.70;66.17
63654;BME280;49809;47.418;19.080;2023-03-23T18:16:46;100231.31;;;12.54;67.84
63654;BME280;49809;47.418;19.080;2023-03-23T18:19:49;100241.44;;;12.42;68.67
63654;BME280;49809;47.418;19.080;2023-03-23T18:22:53;100235.84;;;12.29;68.93
63654;BME280;49809;47.418;19.080;2023-03-23T18:25:58;100233.16;;;12.18;69.34
63654;BME280;49809;47.418;19.080;2023-03-23T18:29:22;100237.13;;;12.11;69.29
63654;BME280;49809;47.418;19.080;2023-03-23T18:32:26;100241.09;;;12.03;69.71
63654;BME280;49809;47.418;19.080;2023-03-23T18:36:04;100244.00;;;11.97;69.97
63654;BME280;49809;47.418;19.080;2023-03-23T18:39:31;100243.97;;;11.87;70.39
63654;BME280;49809;47.418;19.080;2023-03-23T18:42:37;100245.25;;;11.74;70.92
63654;BME280;49809;47.418;19.080;2023-03-23T18:45:41;100247.84;;;11.64;72.17
63654;BME280;49809;47.418;19.080;2023-03-23T18:49:07;100248.56;;;11.49;72.95
63654;BME280;49809;47.418;19.080;2023-03-23T18:52:12;100251.16;;;11.39;73.16
63654;BME280;49809;47.418;19.080;2023-03-23T18:55:18;100249.25;;;11.29;73.63
63654;BME280;49809;47.418;19.080;2023-03-23T18:58:23;100253.69;;;11.19;74.88
63654;BME280;49809;47.418;19.080;2023-03-23T19:01:28;100248.31;;;11.09;75.26
63654;BME280;49809;47.418;19.080;2023-03-23T19:12:49;100242.53;;;10.75;76.82
63654;BME280;49809;47.418;19.080;2023-03-23T19:15:52;100245.44;;;10.73;77.29
63654;BME280;49809;47.418;19.080;2023-03-23T19:18:59;100251.47;;;10.64;77.20
63654;BME280;49809;47.418;19.080;2023-03-23T19:22:04;100255.09;;;10.58;77.35
63654;BME280;49809;47.418;19.080;2023-03-23T19:25:11;100251.03;;;10.45;78.26
63654;BME280;49809;47.418;19.080;2023-03-23T19:32:50;100246.84;;;10.49;77.60
63654;BME280;49809;47.418;19.080;2023-03-23T19:35:56;100238.28;;;10.42;77.85
63654;BME280;49809;47.418;19.080;2023-03-23T19:39:19;100244.00;;;10.29;78.62
63654;BME280;49809;47.418;19.080;2023-03-23T19:42:22;100243.38;;;10.22;79.30
63654;BME280;49809;47.418;19.080;2023-03-23T19:45:25;100252.50;;;10.09;79.87
63654;BME280;49809;47.418;19.080;2023-03-23T19:48:29;100250.03;;;10.02;80.82
63654;BME280;49809;47.418;19.080;2023-03-23T19:51:32;100248.09;;;9.93;81.39
63654;BME280;49809;47.418;19.080;2023-03-23T19:54:37;100254.37;;;9.87;81.38
63654;BME280;49809;47.418;19.080;2023-03-23T19:57:44;100253.13;;;9.94;81.16
63654;BME280;49809;47.418;19.080;2023-03-23T20:00:52;100264.37;;;9.85;80.95
63654;BME280;49809;47.418;19.080;2023-03-23T20:03:59;100268.28;;;9.77;81.11
63654;BME280;49809;47.418;19.080;2023-03-23T20:07:07;100267.13;;;9.68;81.96
63654;BME280;49809;47.418;19.080;2023-03-23T20:10:21;100267.53;;;9.60;81.83
63654;BME280;49809;47.418;19.080;2023-03-23T20:13:24;100275.38;;;9.55;82.12
63654;BME280;49809;47.418;19.080;2023-03-23T20:16:32;100273.16;;;9.47;82.69
63654;BME280;49809;47.418;19.080;2023-03-23T20:19:36;100267.59;;;9.43;83.03
63654;BME280;49809;47.418;19.080;2023-03-23T20:22:43;100273.03;;;9.37;83.42
63654;BME280;49809;47.418;19.080;2023-03-23T20:25:46;100285.59;;;9.30;84.24
63654;BME280;49809;47.418;19.080;2023-03-23T20:28:52;100289.84;;;9.31;83.10
63654;BME280;49809;47.418;19.080;2023-03-23T20:31:59;100284.56;;;9.31;83.50
63654;BME280;49809;47.418;19.080;2023-03-23T20:35:07;100284.09;;;9.34;83.17
63654;BME280;49809;47.418;19.080;2023-03-23T20:38:12;100283.88;;;9.19;84.03
63654;BME280;49809;47.418;19.080;2023-03-23T20:41:18;100284.75;;;9.07;84.35
63654;BME280;49809;47.418;19.080;2023-03-23T20:44:25;100284.13;;;9.00;84.84
63654;BME280;49809;47.418;19.080;2023-03-23T20:47:31;100288.75;;;8.93;85.16
63654;BME280;49809;47.418;19.080;2023-03-23T20:50:34;100281.66;;;8.94;85.46
63654;BME280;49809;47.418;19.080;2023-03-23T20:53:37;100285.00;;;8.89;85.61
63654;BME280;49809;47.418;19.080;2023-03-23T20:56:42;100288.13;;;8.86;85.63
63654;BME280;49809;47.418;19.080;2023-03-23T20:59:50;100282.22;;;8.79;86.01
63654;BME280;49809;47.418;19.080;2023-03-23T21:02:57;100282.34;;;8.72;87.22
63654;BME280;49809;47.418;19.080;2023-03-23T21:06:03;100276.69;;;8.64;87.39
63654;BME280;49809;47.418;19.080;2023-03-23T21:09:11;100272.59;;;8.56;87.67
63654;BME280;49809;47.418;19.080;2023-03-23T21:12:17;100276.72;;;8.52;87.57
63654;BME280;49809;47.418;19.080;2023-03-23T21:15:20;100279.53;;;8.46;87.88
63654;BME280;49809;47.418;19.080;2023-03-23T21:18:31;100272.56;;;8.40;88.35
63654;BME280;49809;47.418;19.080;2023-03-23T21:21:34;100274.63;;;8.38;88.58
63654;BME280;49809;47.418;19.080;2023-03-23T21:24:38;100268.50;;;8.32;88.97
63654;BME280;49809;47.418;19.080;2023-03-23T21:27:42;100263.09;;;8.27;88.93
63654;BME280;49809;47.418;19.080;2023-03-23T21:30:47;100271.22;;;8.25;88.73
63654;BME280;49809;47.418;19.080;2023-03-23T21:33:50;100264.03;;;8.21;88.73
63654;BME280;49809;47.418;19.080;2023-03-23T21:36:56;100267.69;;;8.20;88.60
63654;BME280;49809;47.418;19.080;2023-03-23T21:39:59;100277.75;;;8.23;88.89
63654;BME280;49809;47.418;19.080;2023-03-23T21:43:04;100270.34;;;8.20;88.89
63654;BME280;49809;47.418;19.080;2023-03-23T21:46:08;100278.03;;;8.21;88.53
63654;BME280;49809;47.418;19.080;2023-03-23T21:49:12;100282.81;;;8.24;88.85
63654;BME280;49809;47.418;19.080;2023-03-23T21:52:26;100276.91;;;8.17;89.07
63654;BME280;49809;47.418;19.080;2023-03-23T21:55:31;100279.19;;;8.14;89.79
63654;BME280;49809;47.418;19.080;2023-03-23T21:58:35;100273.69;;;8.15;89.53
63654;BME280;49809;47.418;19.080;2023-03-23T22:01:39;100267.50;;;8.10;89.20
63654;BME280;49809;47.418;19.080;2023-03-23T22:05:15;100276.94;;;8.06;89.38
63654;BME280;49809;47.418;19.080;2023-03-23T22:08:22;100278.31;;;8.08;89.38
63654;BME280;49809;47.418;19.080;2023-03-23T22:11:27;100277.84;;;8.00;89.83
63654;BME280;49809;47.418;19.080;2023-03-23T22:14:35;100280.75;;;7.98;89.98
63654;BME280;49809;47.418;19.080;2023-03-23T22:17:38;100281.19;;;7.95;89.59
63654;BME280;49809;47.418;19.080;2023-03-23T22:20:42;100273.66;;;7.87;90.11
63654;BME280;49809;47.418;19.080;2023-03-23T22:23:58;100265.66;;;7.82;90.68
63654;BME280;49809;47.418;19.080;2023-03-23T22:27:05;100261.31;;;7.76;90.76
63654;BME280;49809;47.418;19.080;2023-03-23T22:30:09;100265.47;;;7.72;90.93
63654;BME280;49809;47.418;19.080;2023-03-23T22:33:34;100273.47;;;7.77;91.37
63654;BME280;49809;47.418;19.080;2023-03-23T22:36:40;100276.00;;;7.72;91.24
63654;BME280;49809;47.418;19.080;2023-03-23T22:39:46;100271.19;;;7.69;91.67
63654;BME280;49809;47.418;19.080;2023-03-23T22:42:51;100283.69;;;7.62;91.53
63654;BME280;49809;47.418;19.080;2023-03-23T22:45:57;100282.66;;;7.63;91.75
63654;BME280;49809;47.418;19.080;2023-03-23T22:49:00;100281.53;;;7.59;91.60
63654;BME280;49809;47.418;19.080;2023-03-23T22:52:33;100292.72;;;7.66;91.51
63654;BME280;49809;47.418;19.080;2023-03-23T22:55:58;100298.56;;;7.68;91.55
63654;BME280;49809;47.418;19.080;2023-03-23T22:59:07;100296.16;;;7.66;91.87
63654;BME280;49809;47.418;19.080;2023-03-23T23:02:14;100289.88;;;7.67;91.78
63654;BME280;49809;47.418;19.080;2023-03-23T23:05:18;100294.66;;;7.70;91.77
63654;BME280;49809;47.418;19.080;2023-03-23T23:08:23;100299.34;;;7.80;91.02
63654;BME280;49809;47.418;19.080;2023-03-23T23:11:29;100297.94;;;7.89;91.08
63654;BME280;49809;47.418;19.080;2023-03-23T23:14:33;100302.66;;;7.87;91.13
63654;BME280;49809;47.418;19.080;2023-03-23T23:18:06;100305.50;;;7.97;90.33
63654;BME280;49809;47.418;19.080;2023-03-23T23:21:13;100294.97;;;7.97;90.05
63654;BME280;49809;47.418;19.080;2023-03-23T23:24:19;100298.13;;;7.99;90.11
63654;BME280;49809;47.418;19.080;2023-03-23T23:27:24;100296.69;;;7.92;89.97
63654;BME280;49809;47.418;19.080;2023-03-23T23:30:31;100304.81;;;7.90;90.33
63654;BME280;49809;47.418;19.080;2023-03-23T23:33:37;100301.75;;;7.81;90.78
63654;BME280;49809;47.418;19.080;2023-03-23T23:36:45;100301.87;;;7.75;91.89
63654;BME280;49809;47.418;19.080;2023-03-23T23:39:50;100296.97;;;7.67;91.25
63654;BME280;49809;47.418;19.080;2023-03-23T23:42:58;100304.75;;;7.62;91.51
63654;BME280;49809;47.418;19.080;2023-03-23T23:46:03;100298.13;;;7.59;91.55
63654;BME280;49809;47.418;19.080;2023-03-23T23:49:07;100301.34;;;7.50;91.91
63654;BME280;49809;47.418;19.080;2023-03-23T23:52:46;100303.06;;;7.44;92.64
63654;BME280;49809;47.418;19.080;2023-03-23T23:55:51;100294.72;;;7.35;92.91
